sensor_id;sensor_type;location;lat;lon;timestamp;P1;durP1;ratioP1;P2;durP2;ratioP2
28714;SDS011;15886;49.170;14.572;2023-08-30T00:00:36;8.43;;;6.30;;
28714;SDS011;15886;49.170;14.572;2023-08-30T00:03:04;8.45;;;5.45;;
28714;SDS011;15886;49.170;14.572;2023-08-30T00:05:33;6.40;;;5.10;;
28714;SDS011;15886;49.170;14.572;2023-08-30T00:08:02;7.85;;;6.22;;
28714;SDS011;15886;49.170;14.572;2023-08-30T00:10:30;8.20;;;5.63;;
28714;SDS011;15886;49.170;14.572;2023-08-30T00:15:30;5.70;;;4.85;;
28714;SDS011;15886;49.170;14.572;2023-08-30T00:20:33;8.27;;;5.30;;
28714;SDS011;15886;49.170;14.572;2023-08-30T00:23:01;7.40;;;5.50;;
28714;SDS011;15886;49.170;14.572;2023-08-30T00:25:30;7.45;;;5.78;;
28714;SDS011;15886;49.170;14.572;2023-08-30T00:27:59;7.30;;;5.15;;
28714;SDS011;15886;49.170;14.572;2023-08-30T00:30:28;7.35;;;5.40;;
28714;SDS011;15886;49.170;14.572;2023-08-30T00:32:56;7.75;;;4.72;;
28714;SDS011;15886;49.170;14.572;2023-08-30T00:35:24;11.10;;;5.30;;
28714;SDS011;15886;49.170;14.572;2023-08-30T00:37:52;6.13;;;5.00;;
28714;SDS011;15886;49.170;14.572;2023-08-30T00:40:24;8.52;;;4.55;;
28714;SDS011;15886;49.170;14.572;2023-08-30T00:42:53;7.78;;;5.85;;
28714;SDS011;15886;49.170;14.572;2023-08-30T00:45:21;10.13;;;5.30;;
28714;SDS011;15886;49.170;14.572;2023-08-30T00:47:50;6.95;;;5.30;;
28714;SDS011;15886;49.170;14.572;2023-08-30T00:50:18;8.95;;;5.88;;
28714;SDS011;15886;49.170;14.572;2023-08-30T00:52:46;6.85;;;4.63;;
28714;SDS011;15886;49.170;14.572;2023-08-30T00:55:15;5.60;;;4.97;;
28714;SDS011;15886;49.170;14.572;2023-08-30T00:57:44;8.45;;;5.13;;
28714;SDS011;15886;49.170;14.572;2023-08-30T01:00:14;7.93;;;5.10;;
28714;SDS011;15886;49.170;14.572;2023-08-30T01:02:42;5.57;;;4.93;;
28714;SDS011;15886;49.170;14.572;2023-08-30T01:05:15;6.50;;;5.45;;
28714;SDS011;15886;49.170;14.572;2023-08-30T01:07:47;6.30;;;5.43;;
28714;SDS011;15886;49.170;14.572;2023-08-30T01:10:15;6.75;;;5.35;;
28714;SDS011;15886;49.170;14.572;2023-08-30T01:12:46;9.88;;;5.68;;
28714;SDS011;15886;49.170;14.572;2023-08-30T01:15:19;5.95;;;5.32;;
28714;SDS011;15886;49.170;14.572;2023-08-30T01:17:48;7.47;;;5.97;;
28714;SDS011;15886;49.170;14.572;2023-08-30T01:20:18;8.50;;;6.07;;
28714;SDS011;15886;49.170;14.572;2023-08-30T01:22:58;7.68;;;6.13;;
28714;SDS011;15886;49.170;14.572;2023-08-30T01:28:16;6.72;;;5.63;;
28714;SDS011;15886;49.170;14.572;2023-08-30T01:30:56;10.00;;;7.13;;
28714;SDS011;15886;49.170;14.572;2023-08-30T01:33:26;8.20;;;6.28;;
28714;SDS011;15886;49.170;14.572;2023-08-30T01:36:06;13.15;;;6.47;;
28714;SDS011;15886;49.170;14.572;2023-08-30T01:38:34;8.55;;;6.20;;
28714;SDS011;15886;49.170;14.572;2023-08-30T01:41:03;7.47;;;6.15;;
28714;SDS011;15886;49.170;14.572;2023-08-30T01:43:32;10.75;;;5.75;;
28714;SDS011;15886;49.170;14.572;2023-08-30T01:46:04;10.00;;;5.53;;
28714;SDS011;15886;49.170;14.572;2023-08-30T01:48:33;13.93;;;6.32;;
28714;SDS011;15886;49.170;14.572;2023-08-30T01:51:03;7.50;;;6.00;;
28714;SDS011;15886;49.170;14.572;2023-08-30T01:53:32;7.10;;;5.55;;
28714;SDS011;15886;49.170;14.572;2023-08-30T01:58:34;7.75;;;5.30;;
28714;SDS011;15886;49.170;14.572;2023-08-30T02:01:02;9.15;;;6.97;;
28714;SDS011;15886;49.170;14.572;2023-08-30T02:03:31;8.05;;;5.68;;
28714;SDS011;15886;49.170;14.572;2023-08-30T02:06:02;8.55;;;5.10;;
28714;SDS011;15886;49.170;14.572;2023-08-30T02:08:38;6.43;;;4.53;;
28714;SDS011;15886;49.170;14.572;2023-08-30T02:11:12;5.25;;;4.28;;
28714;SDS011;15886;49.170;14.572;2023-08-30T02:13:42;5.43;;;4.03;;
28714;SDS011;15886;49.170;14.572;2023-08-30T02:16:12;3.47;;;3.17;;
28714;SDS011;15886;49.170;14.572;2023-08-30T02:18:41;4.03;;;3.03;;
28714;SDS011;15886;49.170;14.572;2023-08-30T02:21:13;5.70;;;3.38;;
28714;SDS011;15886;49.170;14.572;2023-08-30T02:23:42;3.92;;;3.35;;
28714;SDS011;15886;49.170;14.572;2023-08-30T02:29:03;4.57;;;3.17;;
28714;SDS011;15886;49.170;14.572;2023-08-30T02:31:33;5.82;;;3.00;;
28714;SDS011;15886;49.170;14.572;2023-08-30T02:34:03;5.63;;;2.75;;
28714;SDS011;15886;49.170;14.572;2023-08-30T02:36:32;3.80;;;2.67;;
28714;SDS011;15886;49.170;14.572;2023-08-30T02:39:00;2.95;;;2.55;;
28714;SDS011;15886;49.170;14.572;2023-08-30T02:41:28;6.28;;;2.78;;
28714;SDS011;15886;49.170;14.572;2023-08-30T02:43:57;4.53;;;2.97;;
28714;SDS011;15886;49.170;14.572;2023-08-30T02:46:25;4.20;;;2.90;;
28714;SDS011;15886;49.170;14.572;2023-08-30T02:48:53;6.20;;;3.05;;
28714;SDS011;15886;49.170;14.572;2023-08-30T02:51:22;3.75;;;2.70;;
28714;SDS011;15886;49.170;14.572;2023-08-30T02:53:51;5.57;;;2.67;;
28714;SDS011;15886;49.170;14.572;2023-08-30T02:56:21;7.97;;;3.05;;
28714;SDS011;15886;49.170;14.572;2023-08-30T02:58:49;4.32;;;3.25;;
28714;SDS011;15886;49.170;14.572;2023-08-30T03:01:20;4.40;;;3.65;;
28714;SDS011;15886;49.170;14.572;2023-08-30T03:03:49;4.38;;;3.00;;
28714;SDS011;15886;49.170;14.572;2023-08-30T03:06:19;4.53;;;3.15;;
28714;SDS011;15886;49.170;14.572;2023-08-30T03:08:47;7.60;;;3.20;;
28714;SDS011;15886;49.170;14.572;2023-08-30T03:13:52;3.58;;;3.03;;
28714;SDS011;15886;49.170;14.572;2023-08-30T03:16:21;3.83;;;3.15;;
28714;SDS011;15886;49.170;14.572;2023-08-30T03:18:49;11.23;;;4.18;;
28714;SDS011;15886;49.170;14.572;2023-08-30T03:23:57;6.65;;;3.40;;
28714;SDS011;15886;49.170;14.572;2023-08-30T03:26:25;4.18;;;3.30;;
28714;SDS011;15886;49.170;14.572;2023-08-30T03:28:54;8.95;;;3.78;;
28714;SDS011;15886;49.170;14.572;2023-08-30T03:31:22;6.13;;;4.03;;
28714;SDS011;15886;49.170;14.572;2023-08-30T03:34:03;2.97;;;2.67;;
28714;SDS011;15886;49.170;14.572;2023-08-30T03:36:31;6.47;;;4.20;;
28714;SDS011;15886;49.170;14.572;2023-08-30T03:38:59;4.80;;;3.53;;
28714;SDS011;15886;49.170;14.572;2023-08-30T03:41:29;4.05;;;3.58;;
28714;SDS011;15886;49.170;14.572;2023-08-30T03:44:00;3.35;;;3.05;;
28714;SDS011;15886;49.170;14.572;2023-08-30T03:46:28;4.57;;;3.67;;
28714;SDS011;15886;49.170;14.572;2023-08-30T03:49:00;4.50;;;3.65;;
28714;SDS011;15886;49.170;14.572;2023-08-30T03:51:32;3.67;;;3.20;;
28714;SDS011;15886;49.170;14.572;2023-08-30T03:54:02;4.05;;;3.65;;
28714;SDS011;15886;49.170;14.572;2023-08-30T03:56:31;7.18;;;3.78;;
28714;SDS011;15886;49.170;14.572;2023-08-30T03:58:59;4.22;;;3.50;;
28714;SDS011;15886;49.170;14.572;2023-08-30T04:01:27;4.55;;;4.15;;
28714;SDS011;15886;49.170;14.572;2023-08-30T04:03:55;8.30;;;4.53;;
28714;SDS011;15886;49.170;14.572;2023-08-30T04:06:26;7.50;;;5.22;;
28714;SDS011;15886;49.170;14.572;2023-08-30T04:11:26;5.10;;;4.60;;
28714;SDS011;15886;49.170;14.572;2023-08-30T04:13:54;6.32;;;5.22;;
28714;SDS011;15886;49.170;14.572;2023-08-30T04:16:23;6.88;;;5.40;;
28714;SDS011;15886;49.170;14.572;2023-08-30T04:18:51;6.65;;;5.28;;
28714;SDS011;15886;49.170;14.572;2023-08-30T04:21:20;7.10;;;4.75;;
28714;SDS011;15886;49.170;14.572;2023-08-30T04:23:49;5.85;;;5.13;;
28714;SDS011;15886;49.170;14.572;2023-08-30T04:26:19;7.38;;;5.43;;
28714;SDS011;15886;49.170;14.572;2023-08-30T04:28:47;5.78;;;4.45;;
28714;SDS011;15886;49.170;14.572;2023-08-30T04:31:17;6.57;;;4.72;;
28714;SDS011;15886;49.170;14.572;2023-08-30T04:33:46;5.93;;;4.85;;
28714;SDS011;15886;49.170;14.572;2023-08-30T04:36:16;7.60;;;4.72;;
28714;SDS011;15886;49.170;14.572;2023-08-30T04:38:44;5.30;;;4.80;;
28714;SDS011;15886;49.170;14.572;2023-08-30T04:41:18;6.63;;;5.35;;
28714;SDS011;15886;49.170;14.572;2023-08-30T04:43:47;5.97;;;4.97;;
28714;SDS011;15886;49.170;14.572;2023-08-30T04:46:18;6.03;;;4.75;;
28714;SDS011;15886;49.170;14.572;2023-08-30T04:48:47;8.05;;;6.28;;
28714;SDS011;15886;49.170;14.572;2023-08-30T04:51:16;7.97;;;5.47;;
28714;SDS011;15886;49.170;14.572;2023-08-30T04:53:45;5.80;;;5.20;;
28714;SDS011;15886;49.170;14.572;2023-08-30T04:56:13;5.97;;;4.97;;
28714;SDS011;15886;49.170;14.572;2023-08-30T04:58:42;7.70;;;5.80;;
28714;SDS011;15886;49.170;14.572;2023-08-30T05:01:12;8.50;;;5.97;;
28714;SDS011;15886;49.170;14.572;2023-08-30T05:03:45;8.00;;;6.03;;
28714;SDS011;15886;49.170;14.572;2023-08-30T05:06:15;7.32;;;6.10;;
28714;SDS011;15886;49.170;14.572;2023-08-30T05:08:43;8.32;;;6.03;;
28714;SDS011;15886;49.170;14.572;2023-08-30T05:11:12;7.88;;;5.88;;
28714;SDS011;15886;49.170;14.572;2023-08-30T05:13:40;7.82;;;5.57;;
28714;SDS011;15886;49.170;14.572;2023-08-30T05:16:09;6.18;;;5.20;;
28714;SDS011;15886;49.170;14.572;2023-08-30T05:18:37;8.88;;;5.07;;
28714;SDS011;15886;49.170;14.572;2023-08-30T05:21:05;9.13;;;6.50;;
28714;SDS011;15886;49.170;14.572;2023-08-30T05:23:33;6.65;;;5.55;;
28714;SDS011;15886;49.170;14.572;2023-08-30T05:26:02;7.75;;;5.80;;
28714;SDS011;15886;49.170;14.572;2023-08-30T05:28:30;7.90;;;6.65;;
28714;SDS011;15886;49.170;14.572;2023-08-30T05:31:00;9.55;;;5.68;;
28714;SDS011;15886;49.170;14.572;2023-08-30T05:33:54;7.50;;;5.53;;
28714;SDS011;15886;49.170;14.572;2023-08-30T05:36:42;7.65;;;5.90;;
28714;SDS011;15886;49.170;14.572;2023-08-30T05:39:25;8.85;;;6.07;;
28714;SDS011;15886;49.170;14.572;2023-08-30T05:41:56;7.78;;;6.00;;
28714;SDS011;15886;49.170;14.572;2023-08-30T05:44:24;8.85;;;6.10;;
28714;SDS011;15886;49.170;14.572;2023-08-30T05:46:52;20.92;;;6.20;;
28714;SDS011;15886;49.170;14.572;2023-08-30T05:49:21;8.63;;;5.82;;
28714;SDS011;15886;49.170;14.572;2023-08-30T05:51:50;6.38;;;5.28;;
28714;SDS011;15886;49.170;14.572;2023-08-30T05:54:18;7.22;;;5.63;;
28714;SDS011;15886;49.170;14.572;2023-08-30T05:56:48;7.68;;;5.75;;
28714;SDS011;15886;49.170;14.572;2023-08-30T05:59:16;9.20;;;6.10;;
28714;SDS011;15886;49.170;14.572;2023-08-30T06:01:45;7.45;;;6.20;;
28714;SDS011;15886;49.170;14.572;2023-08-30T06:04:13;9.07;;;6.32;;
28714;SDS011;15886;49.170;14.572;2023-08-30T06:10:36;7.57;;;5.50;;
28714;SDS011;15886;49.170;14.572;2023-08-30T06:13:06;8.95;;;6.30;;
28714;SDS011;15886;49.170;14.572;2023-08-30T06:15:38;8.40;;;5.05;;
28714;SDS011;15886;49.170;14.572;2023-08-30T06:18:06;6.00;;;5.10;;
28714;SDS011;15886;49.170;14.572;2023-08-30T06:20:34;10.15;;;5.40;;
28714;SDS011;15886;49.170;14.572;2023-08-30T06:23:04;7.78;;;6.13;;
28714;SDS011;15886;49.170;14.572;2023-08-30T06:25:37;5.60;;;4.40;;
28714;SDS011;15886;49.170;14.572;2023-08-30T06:28:05;6.40;;;5.15;;
28714;SDS011;15886;49.170;14.572;2023-08-30T06:30:33;6.03;;;4.65;;
28714;SDS011;15886;49.170;14.572;2023-08-30T06:33:08;6.00;;;4.63;;
28714;SDS011;15886;49.170;14.572;2023-08-30T06:35:36;6.97;;;4.75;;
28714;SDS011;15886;49.170;14.572;2023-08-30T06:38:09;6.80;;;5.55;;
28714;SDS011;15886;49.170;14.572;2023-08-30T06:40:42;8.00;;;5.15;;
28714;SDS011;15886;49.170;14.572;2023-08-30T06:43:10;7.40;;;4.47;;
28714;SDS011;15886;49.170;14.572;2023-08-30T06:45:39;6.45;;;4.90;;
28714;SDS011;15886;49.170;14.572;2023-08-30T06:48:07;15.30;;;5.03;;
28714;SDS011;15886;49.170;14.572;2023-08-30T06:50:35;6.38;;;5.00;;
28714;SDS011;15886;49.170;14.572;2023-08-30T06:53:04;8.23;;;4.90;;
28714;SDS011;15886;49.170;14.572;2023-08-30T06:55:32;6.45;;;4.68;;
28714;SDS011;15886;49.170;14.572;2023-08-30T06:58:03;7.18;;;5.40;;
28714;SDS011;15886;49.170;14.572;2023-08-30T07:00:31;7.38;;;5.25;;
28714;SDS011;15886;49.170;14.572;2023-08-30T07:02:59;6.35;;;4.72;;
28714;SDS011;15886;49.170;14.572;2023-08-30T07:05:28;8.38;;;5.32;;
28714;SDS011;15886;49.170;14.572;2023-08-30T07:07:56;6.22;;;5.10;;
28714;SDS011;15886;49.170;14.572;2023-08-30T07:10:24;7.35;;;4.88;;
28714;SDS011;15886;49.170;14.572;2023-08-30T07:12:52;5.82;;;4.53;;
28714;SDS011;15886;49.170;14.572;2023-08-30T07:15:21;5.20;;;4.13;;
28714;SDS011;15886;49.170;14.572;2023-08-30T07:17:49;8.00;;;5.55;;
28714;SDS011;15886;49.170;14.572;2023-08-30T07:20:19;6.53;;;4.60;;
28714;SDS011;15886;49.170;14.572;2023-08-30T07:22:48;8.73;;;4.88;;
28714;SDS011;15886;49.170;14.572;2023-08-30T07:25:17;6.53;;;4.75;;
28714;SDS011;15886;49.170;14.572;2023-08-30T07:27:45;6.07;;;4.70;;
28714;SDS011;15886;49.170;14.572;2023-08-30T07:30:14;5.53;;;4.22;;
28714;SDS011;15886;49.170;14.572;2023-08-30T07:32:45;8.55;;;4.30;;
28714;SDS011;15886;49.170;14.572;2023-08-30T07:35:13;6.82;;;4.82;;
28714;SDS011;15886;49.170;14.572;2023-08-30T07:37:43;8.38;;;5.25;;
28714;SDS011;15886;49.170;14.572;2023-08-30T07:40:11;9.40;;;5.03;;
28714;SDS011;15886;49.170;14.572;2023-08-30T07:42:40;5.55;;;4.05;;
28714;SDS011;15886;49.170;14.572;2023-08-30T07:45:08;7.55;;;4.60;;
28714;SDS011;15886;49.170;14.572;2023-08-30T07:47:36;11.43;;;4.22;;
28714;SDS011;15886;49.170;14.572;2023-08-30T07:50:05;6.32;;;4.68;;
28714;SDS011;15886;49.170;14.572;2023-08-30T07:52:33;6.50;;;4.80;;
28714;SDS011;15886;49.170;14.572;2023-08-30T07:55:09;6.60;;;4.40;;
28714;SDS011;15886;49.170;14.572;2023-08-30T07:57:37;5.35;;;3.72;;
28714;SDS011;15886;49.170;14.572;2023-08-30T08:00:05;5.28;;;4.55;;
28714;SDS011;15886;49.170;14.572;2023-08-30T08:02:39;4.20;;;3.38;;
28714;SDS011;15886;49.170;14.572;2023-08-30T08:05:08;6.63;;;3.72;;
28714;SDS011;15886;49.170;14.572;2023-08-30T08:07:38;5.95;;;4.13;;
28714;SDS011;15886;49.170;14.572;2023-08-30T08:10:07;8.00;;;4.20;;
28714;SDS011;15886;49.170;14.572;2023-08-30T08:12:35;4.43;;;3.50;;
28714;SDS011;15886;49.170;14.572;2023-08-30T08:15:03;3.75;;;3.17;;
28714;SDS011;15886;49.170;14.572;2023-08-30T08:22:58;4.80;;;3.55;;
28714;SDS011;15886;49.170;14.572;2023-08-30T08:25:26;4.30;;;2.83;;
28714;SDS011;15886;49.170;14.572;2023-08-30T08:27:55;5.22;;;3.10;;
28714;SDS011;15886;49.170;14.572;2023-08-30T08:30:23;6.95;;;3.92;;
28714;SDS011;15886;49.170;14.572;2023-08-30T08:32:51;3.47;;;2.63;;
28714;SDS011;15886;49.170;14.572;2023-08-30T08:35:19;4.88;;;3.78;;
28714;SDS011;15886;49.170;14.572;2023-08-30T08:37:48;5.57;;;3.10;;
28714;SDS011;15886;49.170;14.572;2023-08-30T08:40:16;3.40;;;2.65;;
28714;SDS011;15886;49.170;14.572;2023-08-30T08:42:47;4.45;;;3.28;;
28714;SDS011;15886;49.170;14.572;2023-08-30T08:45:17;3.65;;;2.65;;
28714;SDS011;15886;49.170;14.572;2023-08-30T08:47:47;3.92;;;2.92;;
28714;SDS011;15886;49.170;14.572;2023-08-30T08:50:16;3.08;;;2.67;;
28714;SDS011;15886;49.170;14.572;2023-08-30T08:52:45;3.60;;;2.50;;
28714;SDS011;15886;49.170;14.572;2023-08-30T08:55:20;7.88;;;3.75;;
28714;SDS011;15886;49.170;14.572;2023-08-30T08:57:50;3.80;;;3.15;;
28714;SDS011;15886;49.170;14.572;2023-08-30T09:00:19;6.93;;;3.20;;
28714;SDS011;15886;49.170;14.572;2023-08-30T09:02:49;3.28;;;2.97;;
28714;SDS011;15886;49.170;14.572;2023-08-30T09:05:19;5.85;;;2.55;;
28714;SDS011;15886;49.170;14.572;2023-08-30T09:07:49;6.35;;;3.33;;
28714;SDS011;15886;49.170;14.572;2023-08-30T09:10:20;3.80;;;3.10;;
28714;SDS011;15886;49.170;14.572;2023-08-30T09:12:49;4.47;;;3.08;;
28714;SDS011;15886;49.170;14.572;2023-08-30T09:15:17;3.58;;;2.97;;
28714;SDS011;15886;49.170;14.572;2023-08-30T09:17:46;4.60;;;3.20;;
28714;SDS011;15886;49.170;14.572;2023-08-30T09:20:14;5.00;;;3.30;;
28714;SDS011;15886;49.170;14.572;2023-08-30T09:22:42;3.58;;;2.97;;
28714;SDS011;15886;49.170;14.572;2023-08-30T09:25:22;4.18;;;3.40;;
28714;SDS011;15886;49.170;14.572;2023-08-30T09:27:57;3.85;;;2.97;;
28714;SDS011;15886;49.170;14.572;2023-08-30T09:30:27;4.25;;;3.28;;
28714;SDS011;15886;49.170;14.572;2023-08-30T09:33:03;4.18;;;3.65;;
28714;SDS011;15886;49.170;14.572;2023-08-30T09:35:31;4.40;;;3.50;;
28714;SDS011;15886;49.170;14.572;2023-08-30T09:38:01;7.35;;;3.47;;
28714;SDS011;15886;49.170;14.572;2023-08-30T09:40:29;7.85;;;4.47;;
28714;SDS011;15886;49.170;14.572;2023-08-30T09:43:03;5.07;;;3.88;;
28714;SDS011;15886;49.170;14.572;2023-08-30T09:45:38;6.28;;;3.25;;
28714;SDS011;15886;49.170;14.572;2023-08-30T09:48:07;5.05;;;3.80;;
28714;SDS011;15886;49.170;14.572;2023-08-30T09:50:36;8.32;;;4.40;;
28714;SDS011;15886;49.170;14.572;2023-08-30T09:53:09;12.05;;;4.32;;
28714;SDS011;15886;49.170;14.572;2023-08-30T09:55:40;5.90;;;4.43;;
28714;SDS011;15886;49.170;14.572;2023-08-30T09:58:09;8.27;;;4.40;;
28714;SDS011;15886;49.170;14.572;2023-08-30T10:00:39;7.20;;;4.53;;
28714;SDS011;15886;49.170;14.572;2023-08-30T10:03:08;6.72;;;4.97;;
28714;SDS011;15886;49.170;14.572;2023-08-30T10:06:02;5.65;;;4.75;;
28714;SDS011;15886;49.170;14.572;2023-08-30T10:08:33;5.88;;;4.43;;
28714;SDS011;15886;49.170;14.572;2023-08-30T10:11:03;6.65;;;5.32;;
28714;SDS011;15886;49.170;14.572;2023-08-30T10:13:33;5.88;;;4.63;;
28714;SDS011;15886;49.170;14.572;2023-08-30T10:16:01;13.65;;;5.60;;
28714;SDS011;15886;49.170;14.572;2023-08-30T10:18:32;7.53;;;6.07;;
28714;SDS011;15886;49.170;14.572;2023-08-30T10:21:02;7.80;;;5.82;;
28714;SDS011;15886;49.170;14.572;2023-08-30T10:23:31;9.00;;;6.35;;
28714;SDS011;15886;49.170;14.572;2023-08-30T10:26:00;8.02;;;5.75;;
28714;SDS011;15886;49.170;14.572;2023-08-30T10:28:29;10.98;;;6.15;;
28714;SDS011;15886;49.170;14.572;2023-08-30T10:30:58;15.38;;;6.85;;
28714;SDS011;15886;49.170;14.572;2023-08-30T10:33:26;10.63;;;7.05;;
28714;SDS011;15886;49.170;14.572;2023-08-30T10:36:02;9.82;;;7.57;;
28714;SDS011;15886;49.170;14.572;2023-08-30T10:38:32;8.43;;;6.18;;
28714;SDS011;15886;49.170;14.572;2023-08-30T10:41:06;12.02;;;8.35;;
28714;SDS011;15886;49.170;14.572;2023-08-30T10:43:35;10.30;;;7.33;;
28714;SDS011;15886;49.170;14.572;2023-08-30T10:46:05;10.05;;;7.60;;
28714;SDS011;15886;49.170;14.572;2023-08-30T10:48:37;9.73;;;7.35;;
28714;SDS011;15886;49.170;14.572;2023-08-30T10:51:55;11.50;;;8.50;;
28714;SDS011;15886;49.170;14.572;2023-08-30T10:53:59;11.45;;;7.63;;
28714;SDS011;15886;49.170;14.572;2023-08-30T10:56:28;11.43;;;7.03;;
28714;SDS011;15886;49.170;14.572;2023-08-30T10:58:56;9.70;;;7.53;;
28714;SDS011;15886;49.170;14.572;2023-08-30T11:01:25;10.50;;;7.22;;
28714;SDS011;15886;49.170;14.572;2023-08-30T11:03:55;8.45;;;6.57;;
28714;SDS011;15886;49.170;14.572;2023-08-30T11:06:28;9.15;;;6.43;;
28714;SDS011;15886;49.170;14.572;2023-08-30T11:08:56;11.85;;;7.68;;
28714;SDS011;15886;49.170;14.572;2023-08-30T11:11:24;10.68;;;7.65;;
28714;SDS011;15886;49.170;14.572;2023-08-30T11:13:52;9.23;;;6.60;;
28714;SDS011;15886;49.170;14.572;2023-08-30T11:16:21;8.50;;;5.78;;
28714;SDS011;15886;49.170;14.572;2023-08-30T11:18:50;7.10;;;5.40;;
28714;SDS011;15886;49.170;14.572;2023-08-30T11:21:18;8.80;;;5.85;;
28714;SDS011;15886;49.170;14.572;2023-08-30T11:23:48;9.45;;;7.22;;
28714;SDS011;15886;49.170;14.572;2023-08-30T11:26:16;9.48;;;5.40;;
28714;SDS011;15886;49.170;14.572;2023-08-30T11:28:46;8.48;;;6.20;;
28714;SDS011;15886;49.170;14.572;2023-08-30T11:31:23;9.30;;;6.07;;
28714;SDS011;15886;49.170;14.572;2023-08-30T11:33:56;10.77;;;7.22;;
28714;SDS011;15886;49.170;14.572;2023-08-30T11:36:29;11.50;;;7.05;;
28714;SDS011;15886;49.170;14.572;2023-08-30T11:38:58;7.60;;;6.53;;
28714;SDS011;15886;49.170;14.572;2023-08-30T11:41:26;10.02;;;6.32;;
28714;SDS011;15886;49.170;14.572;2023-08-30T11:46:28;7.13;;;4.95;;
28714;SDS011;15886;49.170;14.572;2023-08-30T11:48:59;9.00;;;6.20;;
28714;SDS011;15886;49.170;14.572;2023-08-30T11:51:29;6.97;;;5.18;;
28714;SDS011;15886;49.170;14.572;2023-08-30T11:53:57;7.38;;;5.03;;
28714;SDS011;15886;49.170;14.572;2023-08-30T11:56:27;7.65;;;5.70;;
28714;SDS011;15886;49.170;14.572;2023-08-30T11:58:56;6.18;;;4.70;;
28714;SDS011;15886;49.170;14.572;2023-08-30T12:01:24;5.93;;;4.55;;
28714;SDS011;15886;49.170;14.572;2023-08-30T12:03:52;7.88;;;5.13;;
28714;SDS011;15886;49.170;14.572;2023-08-30T12:06:22;6.53;;;4.72;;
28714;SDS011;15886;49.170;14.572;2023-08-30T12:08:58;8.48;;;5.20;;
28714;SDS011;15886;49.170;14.572;2023-08-30T12:11:27;9.63;;;5.50;;
28714;SDS011;15886;49.170;14.572;2023-08-30T12:14:02;6.18;;;4.88;;
28714;SDS011;15886;49.170;14.572;2023-08-30T12:16:31;6.05;;;4.65;;
28714;SDS011;15886;49.170;14.572;2023-08-30T12:19:16;6.80;;;4.18;;
28714;SDS011;15886;49.170;14.572;2023-08-30T12:24:13;6.53;;;4.45;;
28714;SDS011;15886;49.170;14.572;2023-08-30T12:26:47;6.32;;;4.30;;
28714;SDS011;15886;49.170;14.572;2023-08-30T12:29:15;3.85;;;3.45;;
28714;SDS011;15886;49.170;14.572;2023-08-30T12:31:44;6.07;;;4.13;;
28714;SDS011;15886;49.170;14.572;2023-08-30T12:34:12;4.78;;;3.80;;
28714;SDS011;15886;49.170;14.572;2023-08-30T12:36:40;4.72;;;3.53;;
28714;SDS011;15886;49.170;14.572;2023-08-30T12:39:09;4.57;;;4.10;;
28714;SDS011;15886;49.170;14.572;2023-08-30T12:41:37;6.28;;;4.10;;
28714;SDS011;15886;49.170;14.572;2023-08-30T12:44:06;4.45;;;3.28;;
28714;SDS011;15886;49.170;14.572;2023-08-30T12:46:36;4.88;;;4.20;;
28714;SDS011;15886;49.170;14.572;2023-08-30T12:49:04;4.05;;;3.28;;
28714;SDS011;15886;49.170;14.572;2023-08-30T12:51:34;5.55;;;3.58;;
28714;SDS011;15886;49.170;14.572;2023-08-30T12:54:02;5.20;;;3.28;;
28714;SDS011;15886;49.170;14.572;2023-08-30T12:56:30;6.35;;;3.53;;
28714;SDS011;15886;49.170;14.572;2023-08-30T12:58:58;3.95;;;3.45;;
28714;SDS011;15886;49.170;14.572;2023-08-30T13:01:27;7.28;;;3.78;;
28714;SDS011;15886;49.170;14.572;2023-08-30T13:03:57;3.78;;;3.10;;
28714;SDS011;15886;49.170;14.572;2023-08-30T13:06:25;4.28;;;3.17;;
28714;SDS011;15886;49.170;14.572;2023-08-30T13:08:54;6.13;;;3.97;;
28714;SDS011;15886;49.170;14.572;2023-08-30T13:11:22;4.70;;;3.67;;
28714;SDS011;15886;49.170;14.572;2023-08-30T13:13:53;6.22;;;3.78;;
28714;SDS011;15886;49.170;14.572;2023-08-30T13:16:21;4.00;;;3.60;;
28714;SDS011;15886;49.170;14.572;2023-08-30T13:18:50;4.80;;;3.00;;
28714;SDS011;15886;49.170;14.572;2023-08-30T13:21:19;4.10;;;3.03;;
28714;SDS011;15886;49.170;14.572;2023-08-30T13:23:50;3.88;;;3.30;;
28714;SDS011;15886;49.170;14.572;2023-08-30T13:26:18;5.55;;;3.40;;
28714;SDS011;15886;49.170;14.572;2023-08-30T13:28:49;3.72;;;2.70;;
28714;SDS011;15886;49.170;14.572;2023-08-30T13:31:19;3.90;;;2.45;;
28714;SDS011;15886;49.170;14.572;2023-08-30T13:33:47;5.25;;;3.35;;
28714;SDS011;15886;49.170;14.572;2023-08-30T13:36:15;4.22;;;3.00;;
28714;SDS011;15886;49.170;14.572;2023-08-30T13:38:44;3.58;;;2.78;;
28714;SDS011;15886;49.170;14.572;2023-08-30T13:41:14;3.30;;;2.80;;
28714;SDS011;15886;49.170;14.572;2023-08-30T13:43:42;2.85;;;2.35;;
28714;SDS011;15886;49.170;14.572;2023-08-30T13:46:12;2.85;;;2.50;;
28714;SDS011;15886;49.170;14.572;2023-08-30T13:48:40;2.92;;;2.60;;
28714;SDS011;15886;49.170;14.572;2023-08-30T13:51:09;2.83;;;2.53;;
28714;SDS011;15886;49.170;14.572;2023-08-30T13:53:37;4.25;;;2.95;;
28714;SDS011;15886;49.170;14.572;2023-08-30T13:56:05;3.40;;;2.75;;
28714;SDS011;15886;49.170;14.572;2023-08-30T13:58:34;3.40;;;2.95;;
28714;SDS011;15886;49.170;14.572;2023-08-30T14:01:04;3.22;;;2.50;;
28714;SDS011;15886;49.170;14.572;2023-08-30T14:03:33;2.92;;;2.42;;
28714;SDS011;15886;49.170;14.572;2023-08-30T14:06:01;4.10;;;2.60;;
28714;SDS011;15886;49.170;14.572;2023-08-30T14:08:30;2.40;;;2.20;;
28714;SDS011;15886;49.170;14.572;2023-08-30T14:10:59;3.50;;;2.50;;
28714;SDS011;15886;49.170;14.572;2023-08-30T14:13:27;4.95;;;2.35;;
28714;SDS011;15886;49.170;14.572;2023-08-30T14:16:03;3.47;;;2.22;;
28714;SDS011;15886;49.170;14.572;2023-08-30T14:18:31;2.67;;;1.95;;
28714;SDS011;15886;49.170;14.572;2023-08-30T14:21:00;7.65;;;2.60;;
28714;SDS011;15886;49.170;14.572;2023-08-30T14:23:29;3.85;;;2.42;;
28714;SDS011;15886;49.170;14.572;2023-08-30T14:25:58;3.17;;;2.50;;
28714;SDS011;15886;49.170;14.572;2023-08-30T14:28:26;3.40;;;2.53;;
28714;SDS011;15886;49.170;14.572;2023-08-30T14:30:55;2.38;;;1.77;;
28714;SDS011;15886;49.170;14.572;2023-08-30T14:33:23;4.00;;;2.58;;
28714;SDS011;15886;49.170;14.572;2023-08-30T14:35:52;4.43;;;2.53;;
28714;SDS011;15886;49.170;14.572;2023-08-30T14:38:20;2.88;;;1.98;;
28714;SDS011;15886;49.170;14.572;2023-08-30T14:41:00;5.95;;;1.88;;
28714;SDS011;15886;49.170;14.572;2023-08-30T14:43:29;3.22;;;2.35;;
28714;SDS011;15886;49.170;14.572;2023-08-30T14:46:05;2.95;;;2.22;;
28714;SDS011;15886;49.170;14.572;2023-08-30T14:48:36;3.40;;;2.05;;
28714;SDS011;15886;49.170;14.572;2023-08-30T14:51:05;2.85;;;2.53;;
28714;SDS011;15886;49.170;14.572;2023-08-30T14:53:34;3.22;;;2.17;;
28714;SDS011;15886;49.170;14.572;2023-08-30T14:56:03;7.30;;;2.60;;
28714;SDS011;15886;49.170;14.572;2023-08-30T14:58:34;3.00;;;2.28;;
28714;SDS011;15886;49.170;14.572;2023-08-30T15:01:03;3.35;;;2.38;;
28714;SDS011;15886;49.170;14.572;2023-08-30T15:03:32;3.15;;;1.83;;
28714;SDS011;15886;49.170;14.572;2023-08-30T15:06:00;3.00;;;2.00;;
28714;SDS011;15886;49.170;14.572;2023-08-30T15:08:29;2.45;;;2.25;;
28714;SDS011;15886;49.170;14.572;2023-08-30T15:10:58;4.55;;;1.77;;
28714;SDS011;15886;49.170;14.572;2023-08-30T15:13:26;3.53;;;2.33;;
28714;SDS011;15886;49.170;14.572;2023-08-30T15:15:55;3.60;;;2.20;;
28714;SDS011;15886;49.170;14.572;2023-08-30T15:18:23;3.85;;;1.98;;
28714;SDS011;15886;49.170;14.572;2023-08-30T15:20:52;16.92;;;4.03;;
28714;SDS011;15886;49.170;14.572;2023-08-30T15:23:21;2.47;;;1.80;;